sensor_id;sensor_type;location;lat;lon;timestamp;P1;durP1;ratioP1;P2;durP2;ratioP2
56345;SDS011;42246;46.096;13.644;2024-01-11T00:00:06;8.38;;;3.72;;
56345;SDS011;42246;46.096;13.644;2024-01-11T00:02:32;8.80;;;4.07;;
56345;SDS011;42246;46.096;13.644;2024-01-11T00:04:57;8.57;;;4.90;;
56345;SDS011;42246;46.096;13.644;2024-01-11T00:07:23;8.73;;;4.45;;
56345;SDS011;42246;46.096;13.644;2024-01-11T00:09:48;11.68;;;4.18;;
56345;SDS011;42246;46.096;13.644;2024-01-11T00:12:14;9.55;;;5.03;;
56345;SDS011;42246;46.096;13.644;2024-01-11T00:14:39;12.52;;;4.18;;
56345;SDS011;42246;46.096;13.644;2024-01-11T00:17:05;9.57;;;4.13;;
56345;SDS011;42246;46.096;13.644;2024-01-11T00:19:30;11.20;;;4.47;;
56345;SDS011;42246;46.096;13.644;2024-01-11T00:21:56;7.90;;;3.53;;
56345;SDS011;42246;46.096;13.644;2024-01-11T00:24:23;11.73;;;4.63;;
56345;SDS011;42246;46.096;13.644;2024-01-11T00:26:49;6.80;;;4.00;;
56345;SDS011;42246;46.096;13.644;2024-01-11T00:29:14;8.95;;;5.35;;
56345;SDS011;42246;46.096;13.644;2024-01-11T00:31:40;10.00;;;4.78;;
56345;SDS011;42246;46.096;13.644;2024-01-11T00:34:05;9.00;;;3.90;;
56345;SDS011;42246;46.096;13.644;2024-01-11T00:36:31;6.63;;;3.80;;
56345;SDS011;42246;46.096;13.644;2024-01-11T00:38:58;7.80;;;3.75;;
56345;SDS011;42246;46.096;13.644;2024-01-11T00:41:24;13.45;;;4.82;;
56345;SDS011;42246;46.096;13.644;2024-01-11T00:43:50;9.88;;;4.72;;
56345;SDS011;42246;46.096;13.644;2024-01-11T00:46:15;7.07;;;3.63;;
56345;SDS011;42246;46.096;13.644;2024-01-11T00:48:40;11.13;;;4.28;;
56345;SDS011;42246;46.096;13.644;2024-01-11T00:51:06;10.30;;;4.05;;
56345;SDS011;42246;46.096;13.644;2024-01-11T00:53:32;9.20;;;5.25;;
56345;SDS011;42246;46.096;13.644;2024-01-11T00:55:58;8.70;;;4.22;;
56345;SDS011;42246;46.096;13.644;2024-01-11T00:58:24;10.45;;;4.57;;
56345;SDS011;42246;46.096;13.644;2024-01-11T01:00:49;7.85;;;3.97;;
56345;SDS011;42246;46.096;13.644;2024-01-11T01:03:15;6.55;;;4.15;;
56345;SDS011;42246;46.096;13.644;2024-01-11T01:05:41;8.00;;;3.92;;
56345;SDS011;42246;46.096;13.644;2024-01-11T01:08:07;9.98;;;4.32;;
56345;SDS011;42246;46.096;13.644;2024-01-11T01:10:32;11.10;;;4.20;;
56345;SDS011;42246;46.096;13.644;2024-01-11T01:12:58;9.05;;;4.35;;
56345;SDS011;42246;46.096;13.644;2024-01-11T01:15:26;8.48;;;4.10;;
56345;SDS011;42246;46.096;13.644;2024-01-11T01:17:51;13.10;;;4.75;;
56345;SDS011;42246;46.096;13.644;2024-01-11T01:20:17;9.43;;;5.03;;
56345;SDS011;42246;46.096;13.644;2024-01-11T01:22:42;7.38;;;3.78;;
56345;SDS011;42246;46.096;13.644;2024-01-11T01:25:08;10.40;;;5.30;;
56345;SDS011;42246;46.096;13.644;2024-01-11T01:27:33;8.73;;;4.95;;
56345;SDS011;42246;46.096;13.644;2024-01-11T01:29:59;11.40;;;4.30;;
56345;SDS011;42246;46.096;13.644;2024-01-11T01:32:24;10.63;;;5.35;;
56345;SDS011;42246;46.096;13.644;2024-01-11T01:34:49;8.70;;;6.05;;
56345;SDS011;42246;46.096;13.644;2024-01-11T01:37:15;8.23;;;5.30;;
56345;SDS011;42246;46.096;13.644;2024-01-11T01:39:41;12.77;;;4.43;;
56345;SDS011;42246;46.096;13.644;2024-01-11T01:42:07;11.45;;;5.03;;
56345;SDS011;42246;46.096;13.644;2024-01-11T01:44:32;9.10;;;4.07;;
56345;SDS011;42246;46.096;13.644;2024-01-11T01:46:58;12.85;;;4.38;;
56345;SDS011;42246;46.096;13.644;2024-01-11T01:49:24;12.63;;;6.55;;
56345;SDS011;42246;46.096;13.644;2024-01-11T01:51:50;13.80;;;4.72;;
56345;SDS011;42246;46.096;13.644;2024-01-11T01:54:16;7.90;;;5.07;;
56345;SDS011;42246;46.096;13.644;2024-01-11T01:56:43;12.23;;;5.10;;
56345;SDS011;42246;46.096;13.644;2024-01-11T01:59:08;11.35;;;5.50;;
56345;SDS011;42246;46.096;13.644;2024-01-11T02:01:35;9.52;;;4.28;;
56345;SDS011;42246;46.096;13.644;2024-01-11T02:04:01;8.15;;;4.63;;
56345;SDS011;42246;46.096;13.644;2024-01-11T02:06:26;12.80;;;5.90;;
56345;SDS011;42246;46.096;13.644;2024-01-11T02:08:54;10.63;;;4.60;;
56345;SDS011;42246;46.096;13.644;2024-01-11T02:11:20;17.38;;;5.43;;
56345;SDS011;42246;46.096;13.644;2024-01-11T02:13:46;8.73;;;4.50;;
56345;SDS011;42246;46.096;13.644;2024-01-11T02:16:12;8.82;;;4.95;;
56345;SDS011;42246;46.096;13.644;2024-01-11T02:18:38;10.40;;;3.67;;
56345;SDS011;42246;46.096;13.644;2024-01-11T02:21:04;8.63;;;3.72;;
56345;SDS011;42246;46.096;13.644;2024-01-11T02:23:32;12.18;;;4.70;;
56345;SDS011;42246;46.096;13.644;2024-01-11T02:25:57;8.63;;;4.13;;
56345;SDS011;42246;46.096;13.644;2024-01-11T02:28:23;10.90;;;5.45;;
56345;SDS011;42246;46.096;13.644;2024-01-11T02:30:48;8.40;;;3.75;;
56345;SDS011;42246;46.096;13.644;2024-01-11T02:33:13;11.05;;;5.93;;
56345;SDS011;42246;46.096;13.644;2024-01-11T02:35:41;8.75;;;4.15;;
56345;SDS011;42246;46.096;13.644;2024-01-11T02:38:08;15.18;;;5.32;;
56345;SDS011;42246;46.096;13.644;2024-01-11T02:40:33;8.95;;;4.78;;
56345;SDS011;42246;46.096;13.644;2024-01-11T02:43:06;7.80;;;3.72;;
56345;SDS011;42246;46.096;13.644;2024-01-11T02:45:33;9.75;;;3.65;;
56345;SDS011;42246;46.096;13.644;2024-01-11T02:47:58;12.82;;;4.82;;
56345;SDS011;42246;46.096;13.644;2024-01-11T02:50:24;9.10;;;4.53;;
56345;SDS011;42246;46.096;13.644;2024-01-11T02:52:49;7.10;;;4.03;;
56345;SDS011;42246;46.096;13.644;2024-01-11T02:55:14;13.77;;;4.70;;
56345;SDS011;42246;46.096;13.644;2024-01-11T02:57:40;7.93;;;4.50;;
56345;SDS011;42246;46.096;13.644;2024-01-11T03:00:05;7.90;;;4.05;;
56345;SDS011;42246;46.096;13.644;2024-01-11T03:02:31;10.68;;;5.22;;
56345;SDS011;42246;46.096;13.644;2024-01-11T03:04:57;11.40;;;5.75;;
56345;SDS011;42246;46.096;13.644;2024-01-11T03:07:22;9.90;;;5.72;;
56345;SDS011;42246;46.096;13.644;2024-01-11T03:09:48;11.73;;;4.38;;
56345;SDS011;42246;46.096;13.644;2024-01-11T03:12:13;10.48;;;4.38;;
56345;SDS011;42246;46.096;13.644;2024-01-11T03:14:39;12.27;;;5.65;;
56345;SDS011;42246;46.096;13.644;2024-01-11T03:17:04;10.88;;;4.90;;
56345;SDS011;42246;46.096;13.644;2024-01-11T03:19:30;10.80;;;4.72;;
56345;SDS011;42246;46.096;13.644;2024-01-11T03:21:55;9.98;;;5.53;;
56345;SDS011;42246;46.096;13.644;2024-01-11T03:24:21;10.75;;;4.28;;
56345;SDS011;42246;46.096;13.644;2024-01-11T03:26:47;9.25;;;5.38;;
56345;SDS011;42246;46.096;13.644;2024-01-11T03:29:13;7.10;;;4.78;;
56345;SDS011;42246;46.096;13.644;2024-01-11T03:31:38;7.05;;;4.65;;
56345;SDS011;42246;46.096;13.644;2024-01-11T03:34:06;10.13;;;5.00;;
56345;SDS011;42246;46.096;13.644;2024-01-11T03:36:32;7.97;;;5.65;;
56345;SDS011;42246;46.096;13.644;2024-01-11T03:38:58;8.20;;;4.50;;
56345;SDS011;42246;46.096;13.644;2024-01-11T03:41:23;11.05;;;4.55;;
56345;SDS011;42246;46.096;13.644;2024-01-11T03:43:49;11.25;;;4.82;;
56345;SDS011;42246;46.096;13.644;2024-01-11T03:46:15;8.30;;;4.20;;
56345;SDS011;42246;46.096;13.644;2024-01-11T03:48:41;9.20;;;4.57;;
56345;SDS011;42246;46.096;13.644;2024-01-11T03:51:06;10.13;;;4.70;;
56345;SDS011;42246;46.096;13.644;2024-01-11T03:53:35;11.10;;;5.05;;
56345;SDS011;42246;46.096;13.644;2024-01-11T03:56:04;10.02;;;4.30;;
56345;SDS011;42246;46.096;13.644;2024-01-11T03:58:30;12.13;;;4.40;;
56345;SDS011;42246;46.096;13.644;2024-01-11T04:00:55;12.45;;;5.00;;
56345;SDS011;42246;46.096;13.644;2024-01-11T04:03:21;12.15;;;5.40;;
56345;SDS011;42246;46.096;13.644;2024-01-11T04:05:46;11.82;;;4.85;;
56345;SDS011;42246;46.096;13.644;2024-01-11T04:08:12;8.80;;;4.90;;
56345;SDS011;42246;46.096;13.644;2024-01-11T04:10:37;14.40;;;5.18;;
56345;SDS011;42246;46.096;13.644;2024-01-11T04:13:03;11.48;;;4.47;;
56345;SDS011;42246;46.096;13.644;2024-01-11T04:15:28;10.77;;;4.30;;
56345;SDS011;42246;46.096;13.644;2024-01-11T04:17:54;12.30;;;5.10;;
56345;SDS011;42246;46.096;13.644;2024-01-11T04:20:19;10.93;;;4.28;;
56345;SDS011;42246;46.096;13.644;2024-01-11T04:22:45;10.52;;;4.28;;
56345;SDS011;42246;46.096;13.644;2024-01-11T04:25:10;9.80;;;4.43;;
56345;SDS011;42246;46.096;13.644;2024-01-11T04:27:36;10.57;;;5.40;;
56345;SDS011;42246;46.096;13.644;2024-01-11T04:30:01;8.07;;;5.18;;
56345;SDS011;42246;46.096;13.644;2024-01-11T04:32:27;9.10;;;5.03;;
56345;SDS011;42246;46.096;13.644;2024-01-11T04:34:52;9.30;;;4.65;;
56345;SDS011;42246;46.096;13.644;2024-01-11T04:37:18;10.20;;;4.85;;
56345;SDS011;42246;46.096;13.644;2024-01-11T04:39:44;10.77;;;5.15;;
56345;SDS011;42246;46.096;13.644;2024-01-11T04:42:09;12.80;;;4.80;;
56345;SDS011;42246;46.096;13.644;2024-01-11T04:44:35;5.63;;;3.05;;
56345;SDS011;42246;46.096;13.644;2024-01-11T04:47:00;9.30;;;4.60;;
56345;SDS011;42246;46.096;13.644;2024-01-11T04:49:26;10.45;;;6.05;;
56345;SDS011;42246;46.096;13.644;2024-01-11T04:51:51;7.40;;;4.00;;
56345;SDS011;42246;46.096;13.644;2024-01-11T04:54:17;16.73;;;6.50;;
56345;SDS011;42246;46.096;13.644;2024-01-11T04:56:42;11.07;;;7.30;;
56345;SDS011;42246;46.096;13.644;2024-01-11T04:59:07;13.73;;;4.53;;
56345;SDS011;42246;46.096;13.644;2024-01-11T05:01:33;6.53;;;3.67;;
56345;SDS011;42246;46.096;13.644;2024-01-11T05:03:58;6.03;;;3.75;;
56345;SDS011;42246;46.096;13.644;2024-01-11T05:06:24;5.00;;;3.20;;
56345;SDS011;42246;46.096;13.644;2024-01-11T05:08:50;10.48;;;4.20;;
56345;SDS011;42246;46.096;13.644;2024-01-11T05:11:20;8.13;;;4.18;;
56345;SDS011;42246;46.096;13.644;2024-01-11T05:13:49;8.80;;;3.97;;
56345;SDS011;42246;46.096;13.644;2024-01-11T05:18:47;10.75;;;5.35;;
56345;SDS011;42246;46.096;13.644;2024-01-11T05:21:13;9.15;;;4.30;;
56345;SDS011;42246;46.096;13.644;2024-01-11T05:23:40;15.35;;;4.60;;
56345;SDS011;42246;46.096;13.644;2024-01-11T05:26:06;14.57;;;6.65;;
56345;SDS011;42246;46.096;13.644;2024-01-11T05:28:33;11.57;;;6.45;;
56345;SDS011;42246;46.096;13.644;2024-01-11T05:30:58;12.10;;;5.25;;
56345;SDS011;42246;46.096;13.644;2024-01-11T05:33:24;6.13;;;3.08;;
56345;SDS011;42246;46.096;13.644;2024-01-11T05:35:49;10.35;;;4.53;;
56345;SDS011;42246;46.096;13.644;2024-01-11T05:38:14;9.30;;;3.38;;
56345;SDS011;42246;46.096;13.644;2024-01-11T05:40:40;9.90;;;4.93;;
56345;SDS011;42246;46.096;13.644;2024-01-11T05:43:06;12.85;;;5.55;;
56345;SDS011;42246;46.096;13.644;2024-01-11T05:45:31;8.68;;;4.07;;
56345;SDS011;42246;46.096;13.644;2024-01-11T05:47:59;9.32;;;3.88;;
56345;SDS011;42246;46.096;13.644;2024-01-11T05:50:24;9.15;;;3.90;;
56345;SDS011;42246;46.096;13.644;2024-01-11T05:52:50;8.45;;;3.67;;
56345;SDS011;42246;46.096;13.644;2024-01-11T05:55:17;8.82;;;4.53;;
56345;SDS011;42246;46.096;13.644;2024-01-11T05:57:42;10.13;;;3.80;;
56345;SDS011;42246;46.096;13.644;2024-01-11T06:00:08;9.30;;;4.45;;
56345;SDS011;42246;46.096;13.644;2024-01-11T06:02:33;10.88;;;4.85;;
56345;SDS011;42246;46.096;13.644;2024-01-11T06:05:01;10.45;;;3.67;;
56345;SDS011;42246;46.096;13.644;2024-01-11T06:07:26;9.77;;;4.05;;
56345;SDS011;42246;46.096;13.644;2024-01-11T06:09:52;9.13;;;4.63;;
56345;SDS011;42246;46.096;13.644;2024-01-11T06:12:18;13.88;;;3.47;;
56345;SDS011;42246;46.096;13.644;2024-01-11T06:14:43;9.43;;;4.22;;
56345;SDS011;42246;46.096;13.644;2024-01-11T06:17:08;11.27;;;5.00;;
56345;SDS011;42246;46.096;13.644;2024-01-11T06:19:36;11.15;;;4.65;;
56345;SDS011;42246;46.096;13.644;2024-01-11T06:22:03;10.55;;;5.65;;
56345;SDS011;42246;46.096;13.644;2024-01-11T06:24:28;8.88;;;3.97;;
56345;SDS011;42246;46.096;13.644;2024-01-11T06:26:54;10.75;;;4.68;;
56345;SDS011;42246;46.096;13.644;2024-01-11T06:29:19;14.15;;;4.75;;
56345;SDS011;42246;46.096;13.644;2024-01-11T06:31:45;12.75;;;4.57;;
56345;SDS011;42246;46.096;13.644;2024-01-11T06:34:10;9.32;;;5.05;;
56345;SDS011;42246;46.096;13.644;2024-01-11T06:36:36;10.45;;;4.72;;
56345;SDS011;42246;46.096;13.644;2024-01-11T06:39:01;11.77;;;4.65;;
56345;SDS011;42246;46.096;13.644;2024-01-11T06:41:26;14.55;;;5.35;;
56345;SDS011;42246;46.096;13.644;2024-01-11T06:43:52;13.27;;;5.43;;
56345;SDS011;42246;46.096;13.644;2024-01-11T06:46:21;7.35;;;4.28;;
56345;SDS011;42246;46.096;13.644;2024-01-11T06:48:47;7.47;;;4.93;;
56345;SDS011;42246;46.096;13.644;2024-01-11T06:51:14;7.35;;;4.03;;
56345;SDS011;42246;46.096;13.644;2024-01-11T06:53:41;17.90;;;4.70;;
56345;SDS011;42246;46.096;13.644;2024-01-11T06:56:16;8.13;;;4.63;;
56345;SDS011;42246;46.096;13.644;2024-01-11T06:58:43;17.73;;;5.75;;
56345;SDS011;42246;46.096;13.644;2024-01-11T07:01:09;12.75;;;5.07;;
56345;SDS011;42246;46.096;13.644;2024-01-11T07:03:35;6.95;;;4.70;;
56345;SDS011;42246;46.096;13.644;2024-01-11T07:06:00;10.80;;;4.88;;
56345;SDS011;42246;46.096;13.644;2024-01-11T07:08:26;14.43;;;5.35;;
56345;SDS011;42246;46.096;13.644;2024-01-11T07:10:52;9.38;;;4.30;;
56345;SDS011;42246;46.096;13.644;2024-01-11T07:13:17;8.77;;;4.63;;
56345;SDS011;42246;46.096;13.644;2024-01-11T07:15:43;8.18;;;4.03;;
56345;SDS011;42246;46.096;13.644;2024-01-11T07:18:08;9.73;;;5.22;;
56345;SDS011;42246;46.096;13.644;2024-01-11T07:20:34;11.88;;;4.15;;
56345;SDS011;42246;46.096;13.644;2024-01-11T07:22:59;9.82;;;4.88;;
56345;SDS011;42246;46.096;13.644;2024-01-11T07:25:25;12.73;;;5.07;;
56345;SDS011;42246;46.096;13.644;2024-01-11T07:27:50;8.75;;;3.78;;
56345;SDS011;42246;46.096;13.644;2024-01-11T07:30:16;13.50;;;4.00;;
56345;SDS011;42246;46.096;13.644;2024-01-11T07:32:43;12.27;;;5.32;;
56345;SDS011;42246;46.096;13.644;2024-01-11T07:35:09;11.18;;;3.90;;
56345;SDS011;42246;46.096;13.644;2024-01-11T07:37:36;6.13;;;3.67;;
56345;SDS011;42246;46.096;13.644;2024-01-11T07:40:02;9.88;;;4.95;;
56345;SDS011;42246;46.096;13.644;2024-01-11T07:42:27;14.30;;;6.05;;
56345;SDS011;42246;46.096;13.644;2024-01-11T07:44:53;9.52;;;5.10;;
56345;SDS011;42246;46.096;13.644;2024-01-11T07:47:18;5.28;;;3.17;;
56345;SDS011;42246;46.096;13.644;2024-01-11T07:49:44;13.23;;;5.50;;
56345;SDS011;42246;46.096;13.644;2024-01-11T07:52:09;10.50;;;4.50;;
56345;SDS011;42246;46.096;13.644;2024-01-11T07:54:35;12.07;;;5.57;;
56345;SDS011;42246;46.096;13.644;2024-01-11T07:57:00;9.32;;;4.18;;
56345;SDS011;42246;46.096;13.644;2024-01-11T07:59:28;11.07;;;4.95;;
56345;SDS011;42246;46.096;13.644;2024-01-11T08:01:57;9.23;;;3.67;;
56345;SDS011;42246;46.096;13.644;2024-01-11T08:04:22;7.20;;;3.72;;
56345;SDS011;42246;46.096;13.644;2024-01-11T08:06:48;8.05;;;3.70;;
56345;SDS011;42246;46.096;13.644;2024-01-11T08:09:14;8.43;;;4.72;;
56345;SDS011;42246;46.096;13.644;2024-01-11T08:11:39;6.97;;;4.88;;
56345;SDS011;42246;46.096;13.644;2024-01-11T08:14:06;9.50;;;4.90;;
56345;SDS011;42246;46.096;13.644;2024-01-11T08:16:32;11.93;;;5.10;;
56345;SDS011;42246;46.096;13.644;2024-01-11T08:18:57;8.85;;;4.53;;
56345;SDS011;42246;46.096;13.644;2024-01-11T08:21:23;8.48;;;4.30;;
56345;SDS011;42246;46.096;13.644;2024-01-11T08:23:49;10.23;;;5.15;;
56345;SDS011;42246;46.096;13.644;2024-01-11T08:26:15;11.18;;;5.75;;
56345;SDS011;42246;46.096;13.644;2024-01-11T08:28:41;12.63;;;5.57;;
56345;SDS011;42246;46.096;13.644;2024-01-11T08:31:07;8.57;;;4.57;;
56345;SDS011;42246;46.096;13.644;2024-01-11T08:33:33;10.20;;;4.32;;
56345;SDS011;42246;46.096;13.644;2024-01-11T08:35:59;8.63;;;4.47;;
56345;SDS011;42246;46.096;13.644;2024-01-11T08:38:24;5.97;;;3.58;;
56345;SDS011;42246;46.096;13.644;2024-01-11T08:40:50;11.30;;;4.32;;
56345;SDS011;42246;46.096;13.644;2024-01-11T08:43:16;9.35;;;3.85;;
56345;SDS011;42246;46.096;13.644;2024-01-11T08:45:42;9.82;;;4.80;;
56345;SDS011;42246;46.096;13.644;2024-01-11T08:48:08;11.50;;;5.10;;
56345;SDS011;42246;46.096;13.644;2024-01-11T08:50:34;8.90;;;4.93;;
56345;SDS011;42246;46.096;13.644;2024-01-11T08:53:00;9.25;;;4.22;;
56345;SDS011;42246;46.096;13.644;2024-01-11T08:55:25;12.88;;;4.35;;
56345;SDS011;42246;46.096;13.644;2024-01-11T08:57:51;12.65;;;4.82;;
56345;SDS011;42246;46.096;13.644;2024-01-11T09:00:17;8.15;;;3.13;;
56345;SDS011;42246;46.096;13.644;2024-01-11T09:02:46;8.63;;;4.38;;
56345;SDS011;42246;46.096;13.644;2024-01-11T09:05:13;10.02;;;3.70;;
56345;SDS011;42246;46.096;13.644;2024-01-11T09:07:39;17.42;;;4.25;;
56345;SDS011;42246;46.096;13.644;2024-01-11T09:10:06;12.30;;;4.75;;
56345;SDS011;42246;46.096;13.644;2024-01-11T09:12:33;15.80;;;3.58;;
56345;SDS011;42246;46.096;13.644;2024-01-11T09:14:59;7.32;;;3.83;;
56345;SDS011;42246;46.096;13.644;2024-01-11T09:17:25;10.55;;;4.10;;
56345;SDS011;42246;46.096;13.644;2024-01-11T09:19:50;9.48;;;3.85;;
56345;SDS011;42246;46.096;13.644;2024-01-11T09:22:16;11.52;;;5.28;;
56345;SDS011;42246;46.096;13.644;2024-01-11T09:24:42;8.13;;;4.45;;
56345;SDS011;42246;46.096;13.644;2024-01-11T09:27:07;12.77;;;4.43;;
56345;SDS011;42246;46.096;13.644;2024-01-11T09:29:33;8.18;;;3.35;;
56345;SDS011;42246;46.096;13.644;2024-01-11T09:31:58;13.57;;;5.30;;
56345;SDS011;42246;46.096;13.644;2024-01-11T09:34:24;10.73;;;4.90;;
56345;SDS011;42246;46.096;13.644;2024-01-11T09:36:50;10.30;;;4.57;;
56345;SDS011;42246;46.096;13.644;2024-01-11T09:39:15;11.70;;;5.32;;
56345;SDS011;42246;46.096;13.644;2024-01-11T09:41:42;6.35;;;2.92;;
56345;SDS011;42246;46.096;13.644;2024-01-11T09:44:10;7.60;;;3.38;;
56345;SDS011;42246;46.096;13.644;2024-01-11T09:46:35;10.90;;;4.97;;
56345;SDS011;42246;46.096;13.644;2024-01-11T09:49:01;13.15;;;3.80;;
56345;SDS011;42246;46.096;13.644;2024-01-11T09:51:29;8.52;;;3.40;;
56345;SDS011;42246;46.096;13.644;2024-01-11T09:53:55;10.77;;;3.75;;
56345;SDS011;42246;46.096;13.644;2024-01-11T09:56:21;10.57;;;4.10;;
56345;SDS011;42246;46.096;13.644;2024-01-11T09:58:48;7.28;;;3.13;;
56345;SDS011;42246;46.096;13.644;2024-01-11T10:01:15;11.45;;;3.90;;
56345;SDS011;42246;46.096;13.644;2024-01-11T10:03:41;11.32;;;3.97;;
56345;SDS011;42246;46.096;13.644;2024-01-11T10:06:07;12.48;;;6.38;;
56345;SDS011;42246;46.096;13.644;2024-01-11T10:08:34;10.57;;;4.43;;
56345;SDS011;42246;46.096;13.644;2024-01-11T10:11:00;9.88;;;4.30;;
56345;SDS011;42246;46.096;13.644;2024-01-11T10:13:28;6.30;;;3.60;;
56345;SDS011;42246;46.096;13.644;2024-01-11T10:16:13;4.97;;;2.85;;
56345;SDS011;42246;46.096;13.644;2024-01-11T10:18:40;7.05;;;3.30;;
56345;SDS011;42246;46.096;13.644;2024-01-11T10:21:06;7.75;;;3.35;;
56345;SDS011;42246;46.096;13.644;2024-01-11T10:23:34;6.57;;;3.45;;
56345;SDS011;42246;46.096;13.644;2024-01-11T10:26:00;5.70;;;3.28;;
56345;SDS011;42246;46.096;13.644;2024-01-11T10:28:26;10.32;;;3.42;;
56345;SDS011;42246;46.096;13.644;2024-01-11T10:30:52;8.65;;;3.92;;
56345;SDS011;42246;46.096;13.644;2024-01-11T10:33:21;8.48;;;3.40;;
56345;SDS011;42246;46.096;13.644;2024-01-11T10:35:47;6.78;;;2.95;;
56345;SDS011;42246;46.096;13.644;2024-01-11T10:38:16;4.82;;;2.55;;
56345;SDS011;42246;46.096;13.644;2024-01-11T10:40:43;5.32;;;2.83;;
56345;SDS011;42246;46.096;13.644;2024-01-11T10:43:09;5.88;;;2.78;;
56345;SDS011;42246;46.096;13.644;2024-01-11T10:45:40;5.90;;;3.15;;
56345;SDS011;42246;46.096;13.644;2024-01-11T10:48:07;5.65;;;2.92;;
56345;SDS011;42246;46.096;13.644;2024-01-11T10:50:41;4.03;;;2.40;;
56345;SDS011;42246;46.096;13.644;2024-01-11T10:55:58;7.47;;;3.72;;
56345;SDS011;42246;46.096;13.644;2024-01-11T10:58:25;6.07;;;2.75;;
56345;SDS011;42246;46.096;13.644;2024-01-11T11:00:52;5.85;;;3.08;;
56345;SDS011;42246;46.096;13.644;2024-01-11T11:03:19;7.85;;;2.60;;
56345;SDS011;42246;46.096;13.644;2024-01-11T11:05:45;6.20;;;2.72;;
56345;SDS011;42246;46.096;13.644;2024-01-11T11:08:13;6.82;;;2.78;;
56345;SDS011;42246;46.096;13.644;2024-01-11T11:10:39;5.57;;;2.47;;
56345;SDS011;42246;46.096;13.644;2024-01-11T11:13:06;6.88;;;3.08;;
56345;SDS011;42246;46.096;13.644;2024-01-11T11:15:33;5.88;;;3.63;;
56345;SDS011;42246;46.096;13.644;2024-01-11T11:18:01;5.18;;;2.90;;
56345;SDS011;42246;46.096;13.644;2024-01-11T11:20:27;6.30;;;2.65;;
56345;SDS011;42246;46.096;13.644;2024-01-11T11:23:09;5.78;;;2.17;;
56345;SDS011;42246;46.096;13.644;2024-01-11T11:25:35;5.85;;;2.15;;
56345;SDS011;42246;46.096;13.644;2024-01-11T11:28:02;5.82;;;3.03;;
56345;SDS011;42246;46.096;13.644;2024-01-11T11:30:31;7.60;;;3.28;;
56345;SDS011;42246;46.096;13.644;2024-01-11T11:32:57;9.10;;;3.08;;
56345;SDS011;42246;46.096;13.644;2024-01-11T11:35:26;6.57;;;3.30;;
56345;SDS011;42246;46.096;13.644;2024-01-11T11:37:57;3.72;;;2.20;;
56345;SDS011;42246;46.096;13.644;2024-01-11T11:40:33;4.13;;;2.08;;
56345;SDS011;42246;46.096;13.644;2024-01-11T11:43:04;5.50;;;2.65;;
56345;SDS011;42246;46.096;13.644;2024-01-11T11:45:30;4.50;;;2.10;;
56345;SDS011;42246;46.096;13.644;2024-01-11T11:47:56;6.68;;;2.17;;
56345;SDS011;42246;46.096;13.644;2024-01-11T11:50:22;4.32;;;1.88;;
56345;SDS011;42246;46.096;13.644;2024-01-11T11:52:53;4.97;;;2.50;;
56345;SDS011;42246;46.096;13.644;2024-01-11T11:55:20;4.65;;;2.20;;
56345;SDS011;42246;46.096;13.644;2024-01-11T11:57:48;4.43;;;2.13;;
56345;SDS011;42246;46.096;13.644;2024-01-11T12:00:14;3.20;;;1.98;;
56345;SDS011;42246;46.096;13.644;2024-01-11T12:02:41;3.33;;;1.20;;
56345;SDS011;42246;46.096;13.644;2024-01-11T12:05:07;4.50;;;1.83;;
56345;SDS011;42246;46.096;13.644;2024-01-11T12:07:32;2.83;;;1.45;;
56345;SDS011;42246;46.096;13.644;2024-01-11T12:09:58;2.60;;;1.40;;
56345;SDS011;42246;46.096;13.644;2024-01-11T12:12:23;4.95;;;1.98;;
56345;SDS011;42246;46.096;13.644;2024-01-11T12:14:49;3.17;;;1.80;;
56345;SDS011;42246;46.096;13.644;2024-01-11T12:17:15;3.33;;;1.77;;
56345;SDS011;42246;46.096;13.644;2024-01-11T12:19:41;3.67;;;1.70;;
56345;SDS011;42246;46.096;13.644;2024-01-11T12:22:07;3.00;;;1.35;;
56345;SDS011;42246;46.096;13.644;2024-01-11T12:24:32;2.88;;;1.38;;
56345;SDS011;42246;46.096;13.644;2024-01-11T12:27:01;2.88;;;1.38;;
56345;SDS011;42246;46.096;13.644;2024-01-11T12:29:30;2.83;;;1.17;;
56345;SDS011;42246;46.096;13.644;2024-01-11T12:31:56;3.67;;;1.35;;
56345;SDS011;42246;46.096;13.644;2024-01-11T12:34:23;2.40;;;1.63;;
56345;SDS011;42246;46.096;13.644;2024-01-11T12:36:49;1.58;;;1.05;;
56345;SDS011;42246;46.096;13.644;2024-01-11T12:39:16;2.55;;;1.42;;
56345;SDS011;42246;46.096;13.644;2024-01-11T12:41:41;2.08;;;1.15;;
56345;SDS011;42246;46.096;13.644;2024-01-11T12:44:08;1.60;;;1.17;;
56345;SDS011;42246;46.096;13.644;2024-01-11T12:46:33;1.83;;;1.20;;
56345;SDS011;42246;46.096;13.644;2024-01-11T12:48:59;2.40;;;1.35;;
56345;SDS011;42246;46.096;13.644;2024-01-11T12:51:25;1.88;;;1.25;;
56345;SDS011;42246;46.096;13.644;2024-01-11T12:53:51;2.30;;;1.42;;
56345;SDS011;42246;46.096;13.644;2024-01-11T12:56:18;1.58;;;1.00;;
56345;SDS011;42246;46.096;13.644;2024-01-11T12:58:44;4.65;;;1.42;;
56345;SDS011;42246;46.096;13.644;2024-01-11T13:01:11;2.55;;;1.50;;
56345;SDS011;42246;46.096;13.644;2024-01-11T13:03:38;2.35;;;1.85;;
56345;SDS011;42246;46.096;13.644;2024-01-11T13:06:04;2.67;;;1.33;;
56345;SDS011;42246;46.096;13.644;2024-01-11T13:08:33;2.05;;;1.13;;
56345;SDS011;42246;46.096;13.644;2024-01-11T13:11:02;5.25;;;2.72;;
56345;SDS011;42246;46.096;13.644;2024-01-11T13:13:34;2.72;;;1.85;;
56345;SDS011;42246;46.096;13.644;2024-01-11T13:16:01;1.90;;;1.23;;
56345;SDS011;42246;46.096;13.644;2024-01-11T13:18:31;3.65;;;1.77;;
56345;SDS011;42246;46.096;13.644;2024-01-11T13:20:57;2.63;;;1.20;;
56345;SDS011;42246;46.096;13.644;2024-01-11T13:23:22;2.90;;;1.38;;
56345;SDS011;42246;46.096;13.644;2024-01-11T13:25:49;2.75;;;1.60;;
56345;SDS011;42246;46.096;13.644;2024-01-11T13:28:15;2.65;;;1.83;;
56345;SDS011;42246;46.096;13.644;2024-01-11T13:30:41;1.70;;;1.20;;
56345;SDS011;42246;46.096;13.644;2024-01-11T13:33:08;2.63;;;1.23;;
56345;SDS011;42246;46.096;13.644;2024-01-11T13:35:34;1.85;;;1.27;;
56345;SDS011;42246;46.096;13.644;2024-01-11T13:38:00;1.75;;;0.68;;
56345;SDS011;42246;46.096;13.644;2024-01-11T13:40:27;1.95;;;1.20;;
56345;SDS011;42246;46.096;13.644;2024-01-11T13:42:57;2.67;;;1.10;;
56345;SDS011;42246;46.096;13.644;2024-01-11T13:45:23;3.53;;;1.13;;
56345;SDS011;42246;46.096;13.644;2024-01-11T13:47:49;1.60;;;0.88;;
56345;SDS011;42246;46.096;13.644;2024-01-11T13:50:14;2.58;;;0.98;;
56345;SDS011;42246;46.096;13.644;2024-01-11T13:52:41;1.92;;;0.93;;
56345;SDS011;42246;46.096;13.644;2024-01-11T13:55:07;2.47;;;0.80;;
56345;SDS011;42246;46.096;13.644;2024-01-11T13:57:35;2.00;;;1.13;;
56345;SDS011;42246;46.096;13.644;2024-01-11T14:00:04;2.42;;;1.15;;
56345;SDS011;42246;46.096;13.644;2024-01-11T14:02:30;2.05;;;1.30;;
56345;SDS011;42246;46.096;13.644;2024-01-11T14:04:56;2.90;;;1.10;;
56345;SDS011;42246;46.096;13.644;2024-01-11T14:07:22;7.63;;;1.70;;
56345;SDS011;42246;46.096;13.644;2024-01-11T14:09:49;2.45;;;1.33;;
56345;SDS011;42246;46.096;13.644;2024-01-11T14:12:14;2.60;;;1.40;;
56345;SDS011;42246;46.096;13.644;2024-01-11T14:14:41;2.80;;;1.48;;
56345;SDS011;42246;46.096;13.644;2024-01-11T14:17:07;1.65;;;0.85;;
56345;SDS011;42246;46.096;13.644;2024-01-11T14:19:33;2.05;;;0.80;;
56345;SDS011;42246;46.096;13.644;2024-01-11T14:21:59;1.73;;;0.90;;
56345;SDS011;42246;46.096;13.644;2024-01-11T14:24:24;1.30;;;1.00;;
56345;SDS011;42246;46.096;13.644;2024-01-11T14:26:50;2.50;;;1.10;;
56345;SDS011;42246;46.096;13.644;2024-01-11T14:29:16;1.85;;;0.80;;